Hurley, New York
Current Conditions -  °F | °C
As of 8:53 AM on Saturday 22 Nov 2014 (Local Time) from KPOU Reporting Station
Clear Clear  
Wind Chill: 21°   Ceiling: Unl
Heat Index: 29°   Visibility: 10mi
Dew Point: 12°   Wind: 8mph
Humidity: 49%   Direction: 210°SSW
Pressure: 30.43"   Gusts: NA
Location:  41.93°N, 74.06°W
Report Text: KPOU 221353Z AUTO 21007KT 10SM CLR M02/M11 A3043 RMK AO2 SLP304 T10171111 TSNO
Loading
Personal Weather Stations






























Interactive Weather Map New forecast layout! Learn more

10-Day Weather Forecast

Advertisements
Track Severe Weather on mobile